Oscar Tybring IV — LAGK — position and weather

sailwx.info

Track history (hours):
 
Tides and Currents Weather Stations Pressure Air Temp Water Temp Dewpoint Dewpoint Depression Visibility Wind Speed Wind Dir Waves Ship Positions

Oscar Tybring IV

Last reported at 2018-Feb-25 23:28 UTC. Time now 2018-Feb-25 23:43 UTC.
Position N 58°06' E 006°48'.

Length 20 m.

Type: SAR. MMSI: 257231500.

Date/timePositionNaut miles runAvg speedWind from/ knotsBaromVisibWave heightAir tempDewpointWater temp
2018-Feb-25 23:28N 58°06' E 006°48'0 0.0
2018-Feb-25 22:58N 58°06' E 006°48'0 0.0
2018-Feb-25 22:28N 58°06' E 006°48'0 0.0
2018-Feb-25 21:58N 58°06' E 006°48'0 0.0
2018-Feb-25 21:25N 58°06' E 006°48'0 0.0
2018-Feb-25 20:58N 58°06' E 006°48'0 0.0
2018-Feb-25 20:28N 58°06' E 006°48'0 0.0
2018-Feb-25 19:58N 58°06' E 006°48'0 0.0
2018-Feb-25 19:22N 58°06' E 006°48'0 0.0
2018-Feb-25 18:59N 58°06' E 006°48'0 0.0
2018-Feb-25 18:28N 58°06' E 006°48'0 0.0
2018-Feb-25 17:58N 58°06' E 006°48'0 0.0
2018-Feb-25 17:28N 58°06' E 006°48'0 0.0
2018-Feb-25 17:00N 58°06' E 006°48'714.5
2018-Feb-25 16:30N 57°60' E 006°57'5 0.7
2018-Feb-25 09:43N 57°59' E 007°05'312.8
2018-Feb-25 09:31N 58°00' E 007°01'5 9.4
2018-Feb-25 09:00N 58°03' E 006°54'4 7.5
2018-Feb-25 08:29N 58°06' E 006°48'0 0.0
2018-Feb-25 07:56N 58°06' E 006°48'0 0.0
2018-Feb-25 07:30N 58°06' E 006°48'0 0.0
2018-Feb-25 06:54N 58°06' E 006°48'0 0.0
2018-Feb-25 06:27N 58°06' E 006°48'0 0.0
2018-Feb-25 05:57N 58°06' E 006°48'0 0.0
2018-Feb-25 05:29N 58°06' E 006°48'0 0.0
2018-Feb-25 05:00N 58°06' E 006°48'0 0.0
2018-Feb-25 04:30N 58°06' E 006°48'0 0.0
2018-Feb-25 04:00N 58°06' E 006°48'0 0.0
2018-Feb-25 03:30N 58°06' E 006°48'0 0.0
2018-Feb-25 03:00N 58°06' E 006°48'0 0.0
2018-Feb-25 02:27N 58°06' E 006°48'0 0.0
2018-Feb-25 01:57N 58°06' E 006°48'0 0.0
2018-Feb-25 01:27N 58°06' E 006°48'0 0.0
2018-Feb-25 00:54N 58°06' E 006°48'0 0.0
2018-Feb-25 00:29N 58°06' E 006°48'0 0.0
2018-Feb-24 23:56N 58°06' E 006°48'0 0.0
2018-Feb-24 23:26N 58°06' E 006°48'0 0.0
2018-Feb-24 22:47N 58°06' E 006°48'0 0.0
2018-Feb-24 22:29N 58°06' E 006°48'0 0.0
2018-Feb-24 21:57N 58°06' E 006°48'0 0.0
2018-Feb-24 21:30N 58°06' E 006°48'0 0.0
2018-Feb-24 20:59N 58°06' E 006°48'0 0.0
2018-Feb-24 20:29N 58°06' E 006°48'0 0.0
2018-Feb-24 19:53N 58°06' E 006°48'0 0.0
2018-Feb-24 19:30N 58°06' E 006°48'0 0.0
2018-Feb-24 18:56N 58°06' E 006°48'0 0.0
2018-Feb-24 18:30N 58°06' E 006°48'0 0.0
2018-Feb-24 18:00N 58°06' E 006°48'0 0.0
2018-Feb-24 17:29N 58°06' E 006°48'0 0.0
2018-Feb-24 17:00N 58°06' E 006°48'4 9.2
2018-Feb-24 16:30N 58°03' E 006°55'4 8.6
2018-Feb-24 16:00N 58°06' E 006°49'0 0.3
2018-Feb-24 15:30N 58°06' E 006°48'0 0.0
2018-Feb-24 15:00N 58°06' E 006°48'0 0.0
2018-Feb-24 14:27N 58°06' E 006°48'0 0.0
2018-Feb-24 14:00N 58°06' E 006°48'0 0.0
2018-Feb-24 13:30N 58°06' E 006°48'0 0.0
2018-Feb-24 13:00N 58°06' E 006°48'0 0.0
2018-Feb-24 12:30N 58°06' E 006°48'0 0.0
2018-Feb-24 12:00N 58°06' E 006°48'0 0.0
2018-Feb-24 11:30N 58°06' E 006°48'0 0.0
2018-Feb-24 11:00N 58°06' E 006°48'0 0.0
2018-Feb-24 10:30N 58°06' E 006°48'0 0.0
2018-Feb-24 10:00N 58°06' E 006°48'0 0.0
2018-Feb-24 09:30N 58°06' E 006°48'0 0.0
2018-Feb-24 08:54N 58°06' E 006°48'0 0.0
2018-Feb-24 08:27N 58°06' E 006°48'0 0.0
2018-Feb-24 08:00N 58°06' E 006°48'0 0.0
2018-Feb-24 07:30N 58°06' E 006°48'0 0.0
2018-Feb-24 07:00N 58°06' E 006°48'0 0.0
2018-Feb-24 06:30N 58°06' E 006°48'0 0.0
2018-Feb-24 05:57N 58°06' E 006°48'0 0.0
2018-Feb-24 05:30N 58°06' E 006°48'0 0.0
2018-Feb-24 05:00N 58°06' E 006°48'0 0.0
2018-Feb-24 04:27N 58°06' E 006°48'0 0.0
2018-Feb-24 04:00N 58°06' E 006°48'0 0.0
2018-Feb-24 03:30N 58°06' E 006°48'0 0.0
2018-Feb-24 03:00N 58°06' E 006°48'0 0.0
2018-Feb-24 02:30N 58°06' E 006°48'0 0.0
2018-Feb-24 02:00N 58°06' E 006°48'0 0.0
2018-Feb-24 01:27N 58°06' E 006°48'0 0.0
2018-Feb-24 01:00N 58°06' E 006°48'0 0.0
2018-Feb-24 00:27N 58°06' E 006°48'0 0.0
2018-Feb-24 00:00N 58°06' E 006°48'0 0.0
2018-Feb-23 23:30N 58°06' E 006°48'0 0.0
2018-Feb-23 23:00N 58°06' E 006°48'0 0.0
2018-Feb-23 22:30N 58°06' E 006°48'0 0.0
2018-Feb-23 22:00N 58°06' E 006°48'0 0.0
2018-Feb-23 21:30N 58°06' E 006°48'0 0.0
2018-Feb-23 21:00N 58°06' E 006°48'0 0.0
2018-Feb-23 20:30N 58°06' E 006°48'0 0.0
2018-Feb-23 20:00N 58°06' E 006°48'0 0.0
2018-Feb-23 19:30N 58°06' E 006°48'0 0.0
2018-Feb-23 19:00N 58°06' E 006°48'0 0.0
2018-Feb-23 18:30N 58°06' E 006°48'0 0.0
2018-Feb-23 18:00N 58°06' E 006°48'0 0.0
2018-Feb-23 17:30N 58°06' E 006°48'0 0.0
2018-Feb-23 17:00N 58°06' E 006°48'0 0.0
2018-Feb-23 16:30N 58°06' E 006°48'0 0.0
2018-Feb-23 16:00N 58°06' E 006°48'0 0.0
2018-Feb-23 15:30N 58°06' E 006°48'0 0.0
2018-Feb-23 14:57N 58°06' E 006°48'0 0.0
2018-Feb-23 14:30N 58°06' E 006°48'4 7.7
2018-Feb-23 14:01N 58°02' E 006°50'3 6.5
2018-Feb-23 13:30N 58°05' E 006°48'1 1.0
2018-Feb-23 12:58N 58°06' E 006°48'0 0.0
2018-Feb-23 12:28N 58°06' E 006°48'0 0.0
2018-Feb-23 11:58N 58°06' E 006°48'0 0.0
2018-Feb-23 11:28N 58°06' E 006°48'0 0.0
2018-Feb-23 10:58N 58°06' E 006°48'0 0.0
2018-Feb-23 10:25N 58°06' E 006°48'0 0.0
2018-Feb-23 09:58N 58°06' E 006°48'0 0.0
2018-Feb-23 09:28N 58°06' E 006°48'0 0.0
2018-Feb-23 08:58N 58°06' E 006°48'0 0.0
2018-Feb-23 08:28N 58°06' E 006°48'0 0.0
2018-Feb-23 07:58N 58°06' E 006°48'0 0.0
2018-Feb-23 07:28N 58°06' E 006°48'0 0.0
2018-Feb-23 06:58N 58°06' E 006°48'0 0.0
2018-Feb-23 06:28N 58°06' E 006°48'0 0.0
2018-Feb-23 05:58N 58°06' E 006°48'0 0.0
2018-Feb-23 05:28N 58°06' E 006°48'0 0.0
2018-Feb-23 04:58N 58°06' E 006°48'0 0.0
2018-Feb-23 04:28N 58°06' E 006°48'0 0.0
2018-Feb-23 03:58N 58°06' E 006°48'0 0.0
2018-Feb-23 03:28N 58°06' E 006°48'0 0.0
2018-Feb-23 02:58N 58°06' E 006°48'0 0.0
2018-Feb-23 02:28N 58°06' E 006°48'0 0.0
2018-Feb-23 01:58N 58°06' E 006°48'0 0.0
2018-Feb-23 01:25N 58°06' E 006°48'0 0.0
2018-Feb-23 00:52N 58°06' E 006°48'0 0.0
2018-Feb-23 00:28N 58°06' E 006°48'0 0.0
2018-Feb-22 23:58N 58°06' E 006°48'0 0.0
2018-Feb-22 23:28N 58°06' E 006°48'0 0.0
2018-Feb-22 22:55N 58°06' E 006°48'0 0.0
2018-Feb-22 22:28N 58°06' E 006°48'0 0.0
2018-Feb-22 21:58N 58°06' E 006°48'0 0.0
2018-Feb-22 21:28N 58°06' E 006°48'0 0.0
2018-Feb-22 20:58N 58°06' E 006°48'0 0.0
2018-Feb-22 20:28N 58°06' E 006°48'0 0.0
2018-Feb-22 19:58N 58°06' E 006°48'0 0.0
2018-Feb-22 19:28N 58°06' E 006°48'0 0.0
2018-Feb-22 18:58N 58°06' E 006°48'0 0.0
2018-Feb-22 18:28N 58°06' E 006°48'0 0.0
2018-Feb-22 17:58N 58°06' E 006°48'0 0.0
2018-Feb-22 17:28N 58°06' E 006°48'0 0.0
2018-Feb-22 16:55N 58°06' E 006°48'0 0.0
2018-Feb-22 16:28N 58°06' E 006°48'0 0.0
2018-Feb-22 15:58N 58°06' E 006°48'0 0.0
2018-Feb-22 15:28N 58°06' E 006°48'0 0.0
2018-Feb-22 14:58N 58°06' E 006°48'0 0.0
2018-Feb-22 14:25N 58°06' E 006°48'0 0.0
2018-Feb-22 13:58N 58°06' E 006°48'0 0.0
2018-Feb-22 13:19N 58°06' E 006°48'0 0.0
2018-Feb-22 12:58N 58°06' E 006°48'0 0.0
2018-Feb-22 12:28N 58°06' E 006°48'0 0.0
2018-Feb-22 11:58N 58°06' E 006°48'0 0.0
2018-Feb-22 11:28N 58°06' E 006°48'0 0.0
2018-Feb-22 10:58N 58°06' E 006°48'0 0.0
2018-Feb-22 10:28N 58°06' E 006°48'0 0.0
2018-Feb-22 09:58N 58°06' E 006°48'0 0.0
2018-Feb-22 09:28N 58°06' E 006°48'0 0.0
2018-Feb-22 08:58N 58°06' E 006°48'0 0.0
2018-Feb-22 08:28N 58°06' E 006°48'0 0.0
2018-Feb-22 07:58N 58°06' E 006°48'0 0.0
2018-Feb-22 07:28N 58°06' E 006°48'0 0.0
2018-Feb-22 06:58N 58°06' E 006°48'0 0.0
2018-Feb-22 06:28N 58°06' E 006°48'0 0.0
2018-Feb-22 05:58N 58°06' E 006°48'0 0.0
2018-Feb-22 05:28N 58°06' E 006°48'0 0.0
2018-Feb-22 04:58N 58°06' E 006°48'0 0.0
2018-Feb-22 04:28N 58°06' E 006°48'0 0.0
2018-Feb-22 03:58N 58°06' E 006°48'0 0.0
2018-Feb-22 03:28N 58°06' E 006°48'0 0.0
2018-Feb-22 03:01N 58°06' E 006°48'0 0.0
2018-Feb-22 02:28N 58°06' E 006°48'0 0.0
2018-Feb-22 01:58N 58°06' E 006°48'0 0.0
2018-Feb-22 01:28N 58°06' E 006°48'0 0.0
2018-Feb-22 00:58N 58°06' E 006°48'0 0.0
2018-Feb-22 00:28N 58°06' E 006°48'0 0.0
2018-Feb-21 23:58N 58°06' E 006°48'0 0.0
2018-Feb-21 23:27N 58°06' E 006°48'0 0.0
2018-Feb-21 22:58N 58°06' E 006°48'0 0.0
2018-Feb-21 22:28N 58°06' E 006°48'0 0.0
2018-Feb-21 22:00N 58°06' E 006°48'0 0.0
2018-Feb-21 21:31N 58°06' E 006°48'0 0.0
2018-Feb-21 20:58N 58°06' E 006°48'0 0.0
2018-Feb-21 20:28N 58°06' E 006°48'0 0.0
2018-Feb-21 19:58N 58°06' E 006°48'0 0.0
2018-Feb-21 19:28N 58°06' E 006°48'0 0.0
2018-Feb-21 18:58N 58°06' E 006°48'0 0.0
2018-Feb-21 18:30N 58°06' E 006°48'0 0.0
2018-Feb-21 17:57N 58°06' E 006°48'0 0.0
2018-Feb-21 17:27N 58°06' E 006°48'0 0.0
2018-Feb-21 16:58N 58°06' E 006°48'0 0.0
2018-Feb-21 16:31N 58°06' E 006°48'0 0.0
2018-Feb-21 16:01N 58°06' E 006°48'0 0.0
2018-Feb-21 15:31N 58°06' E 006°48'0 0.0
2018-Feb-21 15:00N 58°06' E 006°48'0 0.0
2018-Feb-21 14:31N 58°06' E 006°48'0 0.0
2018-Feb-21 13:57N 58°06' E 006°48'0 0.0
2018-Feb-21 13:30N 58°06' E 006°48'4 7.1
2018-Feb-21 13:00N 58°04' E 006°55'1 2.1
2018-Feb-21 12:30N 58°05' E 006°56'2 3.3
2018-Feb-21 12:00N 58°03' E 006°55'3 5.5
2018-Feb-21 11:30N 58°05' E 006°50'1 2.5
2018-Feb-21 10:59N 58°06' E 006°48'0 0.0
2018-Feb-21 10:26N 58°06' E 006°48'0 0.0
2018-Feb-21 09:59N 58°06' E 006°48'0 0.0
2018-Feb-21 09:29N 58°06' E 006°48'0 0.0
2018-Feb-21 08:59N 58°06' E 006°48'0 0.0
2018-Feb-21 08:29N 58°06' E 006°48'0 0.0
2018-Feb-21 07:56N 58°06' E 006°48'0 0.0
2018-Feb-21 07:26N 58°06' E 006°48'0 0.0
2018-Feb-21 06:59N 58°06' E 006°48'0 0.0
2018-Feb-21 06:29N 58°06' E 006°48'0 0.0
2018-Feb-21 05:59N 58°06' E 006°48'0 0.0
2018-Feb-21 05:29N 58°06' E 006°48'0 0.0
2018-Feb-21 04:59N 58°06' E 006°48'0 0.0
2018-Feb-21 04:29N 58°06' E 006°48'0 0.0
2018-Feb-21 03:59N 58°06' E 006°48'0 0.0
2018-Feb-21 03:26N 58°06' E 006°48'0 0.0
2018-Feb-21 02:59N 58°06' E 006°48'0 0.0
2018-Feb-21 02:29N 58°06' E 006°48'0 0.0
2018-Feb-21 01:59N 58°06' E 006°48'0 0.0
2018-Feb-21 01:29N 58°06' E 006°48'0 0.0
2018-Feb-21 00:59N 58°06' E 006°48'0 0.0
2018-Feb-21 00:29N 58°06' E 006°48'0 0.0
2018-Feb-20 23:59N 58°06' E 006°48'0 0.0
2018-Feb-20 23:29N 58°06' E 006°48'0 0.0
2018-Feb-20 22:59N 58°06' E 006°48'0 0.0
2018-Feb-20 22:29N 58°06' E 006°48'0 0.0
2018-Feb-20 21:59N 58°06' E 006°48'0 0.0
2018-Feb-20 21:29N 58°06' E 006°48'0 0.0
2018-Feb-20 20:59N 58°06' E 006°48'0 0.0
2018-Feb-20 20:29N 58°06' E 006°48'0 0.0
2018-Feb-20 19:59N 58°06' E 006°48'0 0.0
2018-Feb-20 19:23N 58°06' E 006°48'0 0.0
2018-Feb-20 18:59N 58°06' E 006°48'0 0.0
2018-Feb-20 18:29N 58°06' E 006°48'0 0.0
2018-Feb-20 18:00N 58°06' E 006°48'0 0.0
2018-Feb-20 17:29N 58°06' E 006°48'0 0.0
2018-Feb-20 16:59N 58°06' E 006°48'0 0.0
2018-Feb-20 16:29N 58°06' E 006°48'0 0.0
2018-Feb-20 15:59N 58°06' E 006°48'0 0.0
2018-Feb-20 15:29N 58°06' E 006°48'0 0.0
2018-Feb-20 14:59N 58°06' E 006°48'0 0.0
2018-Feb-20 14:29N 58°06' E 006°48'0 0.0
2018-Feb-20 13:59N 58°06' E 006°48'0 0.0
2018-Feb-20 13:29N 58°06' E 006°48'0 0.0
2018-Feb-20 12:59N 58°06' E 006°48'0 0.0
2018-Feb-20 12:29N 58°06' E 006°48'0 0.0
2018-Feb-20 11:59N 58°06' E 006°48'0 0.0
2018-Feb-20 11:29N 58°06' E 006°48'0 0.0
2018-Feb-20 10:59N 58°06' E 006°48'0 0.0
2018-Feb-20 10:29N 58°06' E 006°48'0 0.0
2018-Feb-20 09:59N 58°06' E 006°48'0 0.0
2018-Feb-20 09:29N 58°06' E 006°48'0 0.0
2018-Feb-20 08:56N 58°06' E 006°48'0 0.0
2018-Feb-20 08:29N 58°06' E 006°48'0 0.0
2018-Feb-20 07:59N 58°06' E 006°48'0 0.0
2018-Feb-20 07:29N 58°06' E 006°48'0 0.0
2018-Feb-20 06:59N 58°06' E 006°48'0 0.0
2018-Feb-20 06:29N 58°06' E 006°48'0 0.0
2018-Feb-20 05:59N 58°06' E 006°48'0 0.0
2018-Feb-20 05:29N 58°06' E 006°48'0 0.0
2018-Feb-20 04:59N 58°06' E 006°48'0 0.0
2018-Feb-20 04:29N 58°06' E 006°48'0 0.0
2018-Feb-20 03:59N 58°06' E 006°48'0 0.0
2018-Feb-20 03:29N 58°06' E 006°48'0 0.0
2018-Feb-20 02:59N 58°06' E 006°48'0 0.0
2018-Feb-20 02:29N 58°06' E 006°48'0 0.0
2018-Feb-20 01:59N 58°06' E 006°48'0 0.0
2018-Feb-20 01:29N 58°06' E 006°48'0 0.0
2018-Feb-20 00:59N 58°06' E 006°48'0 0.0
2018-Feb-20 00:29N 58°06' E 006°48'0 0.0
2018-Feb-19 23:59N 58°06' E 006°48'0 0.0
2018-Feb-19 23:29N 58°06' E 006°48'0 0.0
2018-Feb-19 22:59N 58°06' E 006°48'0 0.0
2018-Feb-19 22:29N 58°06' E 006°48'0 0.0
2018-Feb-19 21:56N 58°06' E 006°48'0 0.0
2018-Feb-19 21:29N 58°06' E 006°48'0 0.0
2018-Feb-19 20:59N 58°06' E 006°48'0 0.0
2018-Feb-19 20:29N 58°06' E 006°48'0 0.0
2018-Feb-19 19:59N 58°06' E 006°48'0 0.0
2018-Feb-19 19:29N 58°06' E 006°48'0 0.0
2018-Feb-19 18:59N 58°06' E 006°48'0 0.0
2018-Feb-19 18:29N 58°06' E 006°48'0 0.0
2018-Feb-19 17:59N 58°06' E 006°48'0 0.0
2018-Feb-19 17:29N 58°06' E 006°48'0 0.0
2018-Feb-19 16:59N 58°06' E 006°48'0 0.0
2018-Feb-19 16:29N 58°06' E 006°48'0 0.0
2018-Feb-19 15:59N 58°06' E 006°48'0 0.0
2018-Feb-19 15:29N 58°06' E 006°48'0 0.0
2018-Feb-19 14:59N 58°06' E 006°48'0 0.0
2018-Feb-19 14:29N 58°06' E 006°48'0 0.0
2018-Feb-19 13:59N 58°06' E 006°48'0 0.0
2018-Feb-19 13:29N 58°06' E 006°48'0 0.0
2018-Feb-19 12:59N 58°06' E 006°48'0 0.0
2018-Feb-19 12:29N 58°06' E 006°48'0 0.0
2018-Feb-19 11:59N 58°06' E 006°48'0 0.0
2018-Feb-19 11:29N 58°06' E 006°48'0 0.0
2018-Feb-19 10:59N 58°06' E 006°48'0 0.0
2018-Feb-19 10:29N 58°06' E 006°48'0 0.0
2018-Feb-19 09:59N 58°06' E 006°48'0 0.0
2018-Feb-19 09:29N 58°06' E 006°48'0 0.0
2018-Feb-19 08:59N 58°06' E 006°48'0 0.0
2018-Feb-19 08:29N 58°06' E 006°48'0 0.0
2018-Feb-19 07:59N 58°06' E 006°48'0 0.0
2018-Feb-19 07:29N 58°06' E 006°48'0 0.0
2018-Feb-19 06:56N 58°06' E 006°48'0 0.0
2018-Feb-19 06:29N 58°06' E 006°48'0 0.0
2018-Feb-19 05:59N 58°06' E 006°48'0 0.0
2018-Feb-19 05:29N 58°06' E 006°48'0 0.0
2018-Feb-19 04:59N 58°06' E 006°48'0 0.0
2018-Feb-19 04:29N 58°06' E 006°48'0 0.0
2018-Feb-19 03:59N 58°06' E 006°48'0 0.0
2018-Feb-19 03:29N 58°06' E 006°48'0 0.0
2018-Feb-19 02:59N 58°06' E 006°48'0 0.0
2018-Feb-19 02:29N 58°06' E 006°48'0 0.0
2018-Feb-19 01:59N 58°06' E 006°48'0 0.0
2018-Feb-19 01:29N 58°06' E 006°48'0 0.0
2018-Feb-19 00:59N 58°06' E 006°48'0 0.0
2018-Feb-19 00:29N 58°06' E 006°48'0 0.0
2018-Feb-18 23:59N 58°06' E 006°48'0 0.0
2018-Feb-18 23:29N 58°06' E 006°48'0 0.0
2018-Feb-18 22:59N 58°06' E 006°48'0 0.0
2018-Feb-18 22:29N 58°06' E 006°48'0 0.0
2018-Feb-18 21:59N 58°06' E 006°48'0 0.0
2018-Feb-18 21:29N 58°06' E 006°48'0 0.0
2018-Feb-18 20:59N 58°06' E 006°48'0 0.0
2018-Feb-18 20:29N 58°06' E 006°48'0 0.0
2018-Feb-18 19:56N 58°06' E 006°48'0 0.0
2018-Feb-18 19:29N 58°06' E 006°48'0 0.0
2018-Feb-18 18:59N 58°06' E 006°48'0 0.0
2018-Feb-18 18:29N 58°06' E 006°48'0 0.0
2018-Feb-18 17:56N 58°06' E 006°48'0 0.0
2018-Feb-18 17:29N 58°06' E 006°48'0 0.0
2018-Feb-18 16:59N 58°06' E 006°48'0 0.0
2018-Feb-18 16:29N 58°06' E 006°48'0 0.0
2018-Feb-18 15:59N 58°06' E 006°48'0 0.0
2018-Feb-18 15:29N 58°06' E 006°48'0 0.0
2018-Feb-18 14:59N 58°06' E 006°48'0 0.0
2018-Feb-18 14:29N 58°06' E 006°48'0 0.0
2018-Feb-18 13:59N 58°06' E 006°48'1 2.2
2018-Feb-18 13:30N 58°05' E 006°50'712.9
2018-Feb-18 13:00N 58°04' E 006°37'815.8
2018-Feb-18 12:31N 58°11' E 006°38'4 7.1
2018-Feb-18 12:00N 58°15' E 006°34'2 4.4
2018-Feb-18 11:30N 58°14' E 006°30'3 5.4
2018-Feb-18 10:59N 58°12' E 006°35'713.8
2018-Feb-18 10:30N 58°06' E 006°35'3 6.4
2018-Feb-18 10:00N 58°03' E 006°39'611.4
2018-Feb-18 09:30N 58°05' E 006°50'1 1.8
2018-Feb-18 08:58N 58°06' E 006°48'0 0.0
2018-Feb-18 08:28N 58°06' E 006°48'0 0.0
2018-Feb-18 07:58N 58°06' E 006°48'0 0.0
2018-Feb-18 07:28N 58°06' E 006°48'0 0.0
2018-Feb-18 06:58N 58°06' E 006°48'0 0.0
2018-Feb-18 06:28N 58°06' E 006°48'0 0.0
2018-Feb-18 05:55N 58°06' E 006°48'0 0.0
2018-Feb-18 05:28N 58°06' E 006°48'0 0.0
2018-Feb-18 04:58N 58°06' E 006°48'0 0.0
2018-Feb-18 04:28N 58°06' E 006°48'0 0.0
2018-Feb-18 03:58N 58°06' E 006°48'0 0.0
2018-Feb-18 03:28N 58°06' E 006°48'0 0.0
2018-Feb-18 02:58N 58°06' E 006°48'0 0.0
2018-Feb-18 02:28N 58°06' E 006°48'0 0.0
2018-Feb-18 01:58N 58°06' E 006°48'0 0.0
2018-Feb-18 01:28N 58°06' E 006°48'0 0.0
2018-Feb-18 00:58N 58°06' E 006°48'0 0.0
2018-Feb-18 00:28N 58°06' E 006°48'0 0.0
2018-Feb-17 23:58N 58°06' E 006°48'0 0.0
2018-Feb-17 23:28N 58°06' E 006°48'0 0.0
2018-Feb-17 23:01N 58°06' E 006°48'0 0.0
2018-Feb-17 22:28N 58°06' E 006°48'0 0.0
2018-Feb-17 21:58N 58°06' E 006°48'0 0.0
2018-Feb-17 21:28N 58°06' E 006°48'0 0.0
2018-Feb-17 20:58N 58°06' E 006°48'0 0.0
2018-Feb-17 20:25N 58°06' E 006°48'0 0.0
2018-Feb-17 19:58N 58°06' E 006°48'0 0.0
2018-Feb-17 19:28N 58°06' E 006°48'0 0.0
2018-Feb-17 18:58N 58°06' E 006°48'0 0.0
2018-Feb-17 18:28N 58°06' E 006°48'0 0.0
2018-Feb-17 17:58N 58°06' E 006°48'0 0.0
2018-Feb-17 17:28N 58°06' E 006°48'0 0.0
2018-Feb-17 16:58N 58°06' E 006°48'0 0.0
2018-Feb-17 16:28N 58°06' E 006°48'0 0.0
2018-Feb-17 15:58N 58°06' E 006°48'0 0.0
2018-Feb-17 15:28N 58°06' E 006°48'0 0.0
2018-Feb-17 14:58N 58°06' E 006°48'0 0.0
2018-Feb-17 14:30N 58°06' E 006°48'0 0.0
2018-Feb-17 14:01N 58°06' E 006°48'0 0.0
2018-Feb-17 13:28N 58°06' E 006°48'0 0.0
2018-Feb-17 12:58N 58°06' E 006°48'0 0.0
2018-Feb-17 12:28N 58°06' E 006°48'0 0.0
2018-Feb-17 11:58N 58°06' E 006°48'0 0.0
2018-Feb-17 11:28N 58°06' E 006°48'0 0.0
2018-Feb-17 11:01N 58°06' E 006°48'0 0.0
2018-Feb-17 10:28N 58°06' E 006°48'0 0.0
2018-Feb-17 10:01N 58°06' E 006°48'0 0.0
2018-Feb-17 09:28N 58°06' E 006°48'0 0.0
2018-Feb-17 08:58N 58°06' E 006°48'0 0.0
2018-Feb-17 08:28N 58°06' E 006°48'0 0.0
2018-Feb-17 07:58N 58°06' E 006°48'0 0.0
2018-Feb-17 07:28N 58°06' E 006°48'0 0.0
2018-Feb-17 06:58N 58°06' E 006°48'0 0.0
2018-Feb-17 06:28N 58°06' E 006°48'0 0.0
2018-Feb-17 05:58N 58°06' E 006°48'0 0.0
2018-Feb-17 05:31N 58°06' E 006°48'0 0.0
2018-Feb-17 04:58N 58°06' E 006°48'0 0.0
2018-Feb-17 04:30N 58°06' E 006°48'0 0.0
2018-Feb-17 04:01N 58°06' E 006°48'0 0.0
2018-Feb-17 03:28N 58°06' E 006°48'0 0.0
2018-Feb-17 03:00N 58°06' E 006°48'0 0.0
2018-Feb-17 02:31N 58°06' E 006°48'0 0.0
2018-Feb-17 01:58N 58°06' E 006°48'0 0.0
2018-Feb-17 01:28N 58°06' E 006°48'0 0.0
2018-Feb-17 00:58N 58°06' E 006°48'0 0.0
2018-Feb-17 00:28N 58°06' E 006°48'0 0.0
2018-Feb-17 00:00N 58°06' E 006°48'0 0.0
2018-Feb-16 23:31N 58°06' E 006°48'0 0.0
2018-Feb-16 23:00N 58°06' E 006°48'0 0.0
2018-Feb-16 22:28N 58°06' E 006°48'0 0.0
2018-Feb-16 22:00N 58°06' E 006°48'0 0.0
2018-Feb-16 21:27N 58°06' E 006°48'0 0.0
2018-Feb-16 21:00N 58°06' E 006°48'0 0.0
2018-Feb-16 20:30N 58°06' E 006°48'0 0.0
2018-Feb-16 19:58N 58°06' E 006°48'0 0.0
2018-Feb-16 19:30N 58°06' E 006°48'0 0.0
2018-Feb-16 19:00N 58°06' E 006°48'0 0.0
2018-Feb-16 18:30N 58°06' E 006°48'0 0.0
2018-Feb-16 18:00N 58°06' E 006°48'0 0.0
2018-Feb-16 17:30N 58°06' E 006°48'0 0.0
2018-Feb-16 17:00N 58°06' E 006°48'0 0.0
2018-Feb-16 16:31N 58°06' E 006°48'0 0.0
2018-Feb-16 16:00N 58°06' E 006°48'0 0.0
2018-Feb-16 15:30N 58°06' E 006°48'0 0.0
2018-Feb-16 15:00N 58°06' E 006°48'0 0.0
2018-Feb-16 14:28N 58°06' E 006°48'0 0.0
2018-Feb-16 14:00N 58°06' E 006°48'0 0.0
2018-Feb-16 13:30N 58°06' E 006°48'0 0.0
2018-Feb-16 13:00N 58°06' E 006°48'0 0.0
2018-Feb-16 12:30N 58°06' E 006°48'0 0.0
2018-Feb-16 12:00N 58°06' E 006°48'0 0.0
2018-Feb-16 11:30N 58°06' E 006°48'0 0.0
2018-Feb-16 11:00N 58°06' E 006°48'0 0.0
2018-Feb-16 10:30N 58°06' E 006°48'0 0.0
2018-Feb-16 10:00N 58°06' E 006°48'0 0.0
2018-Feb-16 09:30N 58°06' E 006°48'0 0.0
2018-Feb-16 09:00N 58°06' E 006°48'0 0.0
2018-Feb-16 08:30N 58°06' E 006°48'0 0.0
2018-Feb-16 08:00N 58°06' E 006°48'0 0.0
2018-Feb-16 07:30N 58°06' E 006°48'0 0.0
2018-Feb-16 06:58N 58°06' E 006°48'0 0.0
2018-Feb-16 06:30N 58°06' E 006°48'0 0.0
2018-Feb-16 06:00N 58°06' E 006°48'0 0.0
2018-Feb-16 05:30N 58°06' E 006°48'0 0.0
2018-Feb-16 04:54N 58°06' E 006°48'0 0.0
2018-Feb-16 04:30N 58°06' E 006°48'0 0.0
2018-Feb-16 04:00N 58°06' E 006°48'0 0.0
2018-Feb-16 03:30N 58°06' E 006°48'0 0.0
2018-Feb-16 03:00N 58°06' E 006°48'0 0.0
2018-Feb-16 02:30N 58°06' E 006°48'0 0.0
2018-Feb-16 02:00N 58°06' E 006°48'0 0.0
2018-Feb-16 01:30N 58°06' E 006°48'0 0.0
2018-Feb-16 01:00N 58°06' E 006°48'0 0.0
2018-Feb-16 00:30N 58°06' E 006°48'0 0.0
2018-Feb-16 00:00N 58°06' E 006°48'0 0.0
2018-Feb-15 23:30N 58°06' E 006°48'  
Track history (hours):
 
Tides and Currents Weather Stations Pressure Air Temp Water Temp Dewpoint Dewpoint Depression Visibility Wind Speed Wind Dir Waves Ship Positions

Oscar Tybring IV

Last reported at 2018-Feb-25 23:28 UTC. Time now 2018-Feb-25 23:43 UTC.
Position N 58°06' E 006°48'.

Length 20 m.

Type: SAR. MMSI: 257231500.

Date/timePositionNaut miles runAvg speedWind from/ knotsBaromVisibWave heightAir tempDewpointWater temp
2018-Feb-25 23:28N 58°06' E 006°48'0 0.0
2018-Feb-25 22:58N 58°06' E 006°48'0 0.0
2018-Feb-25 22:28N 58°06' E 006°48'0 0.0
2018-Feb-25 21:58N 58°06' E 006°48'0 0.0
2018-Feb-25 21:25N 58°06' E 006°48'0 0.0
2018-Feb-25 20:58N 58°06' E 006°48'0 0.0
2018-Feb-25 20:28N 58°06' E 006°48'0 0.0
2018-Feb-25 19:58N 58°06' E 006°48'0 0.0
2018-Feb-25 19:22N 58°06' E 006°48'0 0.0
2018-Feb-25 18:59N 58°06' E 006°48'0 0.0
2018-Feb-25 18:28N 58°06' E 006°48'0 0.0
2018-Feb-25 17:58N 58°06' E 006°48'0 0.0
2018-Feb-25 17:28N 58°06' E 006°48'0 0.0
2018-Feb-25 17:00N 58°06' E 006°48'714.5
2018-Feb-25 16:30N 57°60' E 006°57'5 0.7
2018-Feb-25 09:43N 57°59' E 007°05'312.8
2018-Feb-25 09:31N 58°00' E 007°01'5 9.4
2018-Feb-25 09:00N 58°03' E 006°54'4 7.5
2018-Feb-25 08:29N 58°06' E 006°48'0 0.0
2018-Feb-25 07:56N 58°06' E 006°48'0 0.0
2018-Feb-25 07:30N 58°06' E 006°48'0 0.0
2018-Feb-25 06:54N 58°06' E 006°48'0 0.0
2018-Feb-25 06:27N 58°06' E 006°48'0 0.0
2018-Feb-25 05:57N 58°06' E 006°48'0 0.0
2018-Feb-25 05:29N 58°06' E 006°48'0 0.0
2018-Feb-25 05:00N 58°06' E 006°48'0 0.0
2018-Feb-25 04:30N 58°06' E 006°48'0 0.0
2018-Feb-25 04:00N 58°06' E 006°48'0 0.0
2018-Feb-25 03:30N 58°06' E 006°48'0 0.0
2018-Feb-25 03:00N 58°06' E 006°48'0 0.0
2018-Feb-25 02:27N 58°06' E 006°48'0 0.0
2018-Feb-25 01:57N 58°06' E 006°48'0 0.0
2018-Feb-25 01:27N 58°06' E 006°48'0 0.0
2018-Feb-25 00:54N 58°06' E 006°48'0 0.0
2018-Feb-25 00:29N 58°06' E 006°48'0 0.0
2018-Feb-24 23:56N 58°06' E 006°48'0 0.0
2018-Feb-24 23:26N 58°06' E 006°48'0 0.0
2018-Feb-24 22:47N 58°06' E 006°48'0 0.0
2018-Feb-24 22:29N 58°06' E 006°48'0 0.0
2018-Feb-24 21:57N 58°06' E 006°48'0 0.0
2018-Feb-24 21:30N 58°06' E 006°48'0 0.0
2018-Feb-24 20:59N 58°06' E 006°48'0 0.0
2018-Feb-24 20:29N 58°06' E 006°48'0 0.0
2018-Feb-24 19:53N 58°06' E 006°48'0 0.0
2018-Feb-24 19:30N 58°06' E 006°48'0 0.0
2018-Feb-24 18:56N 58°06' E 006°48'0 0.0
2018-Feb-24 18:30N 58°06' E 006°48'0 0.0
2018-Feb-24 18:00N 58°06' E 006°48'0 0.0
2018-Feb-24 17:29N 58°06' E 006°48'0 0.0
2018-Feb-24 17:00N 58°06' E 006°48'4 9.2
2018-Feb-24 16:30N 58°03' E 006°55'4 8.6
2018-Feb-24 16:00N 58°06' E 006°49'0 0.3
2018-Feb-24 15:30N 58°06' E 006°48'0 0.0
2018-Feb-24 15:00N 58°06' E 006°48'0 0.0
2018-Feb-24 14:27N 58°06' E 006°48'0 0.0
2018-Feb-24 14:00N 58°06' E 006°48'0 0.0
2018-Feb-24 13:30N 58°06' E 006°48'0 0.0
2018-Feb-24 13:00N 58°06' E 006°48'0 0.0
2018-Feb-24 12:30N 58°06' E 006°48'0 0.0
2018-Feb-24 12:00N 58°06' E 006°48'0 0.0
2018-Feb-24 11:30N 58°06' E 006°48'0 0.0
2018-Feb-24 11:00N 58°06' E 006°48'0 0.0
2018-Feb-24 10:30N 58°06' E 006°48'0 0.0
2018-Feb-24 10:00N 58°06' E 006°48'0 0.0
2018-Feb-24 09:30N 58°06' E 006°48'0 0.0
2018-Feb-24 08:54N 58°06' E 006°48'0 0.0
2018-Feb-24 08:27N 58°06' E 006°48'0 0.0
2018-Feb-24 08:00N 58°06' E 006°48'0 0.0
2018-Feb-24 07:30N 58°06' E 006°48'0 0.0
2018-Feb-24 07:00N 58°06' E 006°48'0 0.0
2018-Feb-24 06:30N 58°06' E 006°48'0 0.0
2018-Feb-24 05:57N 58°06' E 006°48'0 0.0
2018-Feb-24 05:30N 58°06' E 006°48'0 0.0
2018-Feb-24 05:00N 58°06' E 006°48'0 0.0
2018-Feb-24 04:27N 58°06' E 006°48'0 0.0
2018-Feb-24 04:00N 58°06' E 006°48'0 0.0
2018-Feb-24 03:30N 58°06' E 006°48'0 0.0
2018-Feb-24 03:00N 58°06' E 006°48'0 0.0
2018-Feb-24 02:30N 58°06' E 006°48'0 0.0
2018-Feb-24 02:00N 58°06' E 006°48'0 0.0
2018-Feb-24 01:27N 58°06' E 006°48'0 0.0
2018-Feb-24 01:00N 58°06' E 006°48'0 0.0
2018-Feb-24 00:27N 58°06' E 006°48'0 0.0
2018-Feb-24 00:00N 58°06' E 006°48'0 0.0
2018-Feb-23 23:30N 58°06' E 006°48'0 0.0
2018-Feb-23 23:00N 58°06' E 006°48'0 0.0
2018-Feb-23 22:30N 58°06' E 006°48'0 0.0
2018-Feb-23 22:00N 58°06' E 006°48'0 0.0
2018-Feb-23 21:30N 58°06' E 006°48'0 0.0
2018-Feb-23 21:00N 58°06' E 006°48'0 0.0
2018-Feb-23 20:30N 58°06' E 006°48'0 0.0
2018-Feb-23 20:00N 58°06' E 006°48'0 0.0
2018-Feb-23 19:30N 58°06' E 006°48'0 0.0
2018-Feb-23 19:00N 58°06' E 006°48'0 0.0
2018-Feb-23 18:30N 58°06' E 006°48'0 0.0
2018-Feb-23 18:00N 58°06' E 006°48'0 0.0
2018-Feb-23 17:30N 58°06' E 006°48'0 0.0
2018-Feb-23 17:00N 58°06' E 006°48'0 0.0
2018-Feb-23 16:30N 58°06' E 006°48'0 0.0
2018-Feb-23 16:00N 58°06' E 006°48'0 0.0
2018-Feb-23 15:30N 58°06' E 006°48'0 0.0
2018-Feb-23 14:57N 58°06' E 006°48'0 0.0
2018-Feb-23 14:30N 58°06' E 006°48'4 7.7
2018-Feb-23 14:01N 58°02' E 006°50'3 6.5
2018-Feb-23 13:30N 58°05' E 006°48'1 1.0
2018-Feb-23 12:58N 58°06' E 006°48'0 0.0
2018-Feb-23 12:28N 58°06' E 006°48'0 0.0
2018-Feb-23 11:58N 58°06' E 006°48'0 0.0
2018-Feb-23 11:28N 58°06' E 006°48'0 0.0
2018-Feb-23 10:58N 58°06' E 006°48'0 0.0
2018-Feb-23 10:25N 58°06' E 006°48'0 0.0
2018-Feb-23 09:58N 58°06' E 006°48'0 0.0
2018-Feb-23 09:28N 58°06' E 006°48'0 0.0
2018-Feb-23 08:58N 58°06' E 006°48'0 0.0
2018-Feb-23 08:28N 58°06' E 006°48'0 0.0
2018-Feb-23 07:58N 58°06' E 006°48'0 0.0
2018-Feb-23 07:28N 58°06' E 006°48'0 0.0
2018-Feb-23 06:58N 58°06' E 006°48'0 0.0
2018-Feb-23 06:28N 58°06' E 006°48'0 0.0
2018-Feb-23 05:58N 58°06' E 006°48'0 0.0
2018-Feb-23 05:28N 58°06' E 006°48'0 0.0
2018-Feb-23 04:58N 58°06' E 006°48'0 0.0
2018-Feb-23 04:28N 58°06' E 006°48'0 0.0
2018-Feb-23 03:58N 58°06' E 006°48'0 0.0
2018-Feb-23 03:28N 58°06' E 006°48'0 0.0
2018-Feb-23 02:58N 58°06' E 006°48'0 0.0
2018-Feb-23 02:28N 58°06' E 006°48'0 0.0
2018-Feb-23 01:58N 58°06' E 006°48'0 0.0
2018-Feb-23 01:25N 58°06' E 006°48'0 0.0
2018-Feb-23 00:52N 58°06' E 006°48'0 0.0
2018-Feb-23 00:28N 58°06' E 006°48'0 0.0
2018-Feb-22 23:58N 58°06' E 006°48'0 0.0
2018-Feb-22 23:28N 58°06' E 006°48'0 0.0
2018-Feb-22 22:55N 58°06' E 006°48'0 0.0
2018-Feb-22 22:28N 58°06' E 006°48'0 0.0
2018-Feb-22 21:58N 58°06' E 006°48'0 0.0
2018-Feb-22 21:28N 58°06' E 006°48'0 0.0
2018-Feb-22 20:58N 58°06' E 006°48'0 0.0
2018-Feb-22 20:28N 58°06' E 006°48'0 0.0
2018-Feb-22 19:58N 58°06' E 006°48'0 0.0
2018-Feb-22 19:28N 58°06' E 006°48'0 0.0
2018-Feb-22 18:58N 58°06' E 006°48'0 0.0
2018-Feb-22 18:28N 58°06' E 006°48'0 0.0
2018-Feb-22 17:58N 58°06' E 006°48'0 0.0
2018-Feb-22 17:28N 58°06' E 006°48'0 0.0
2018-Feb-22 16:55N 58°06' E 006°48'0 0.0
2018-Feb-22 16:28N 58°06' E 006°48'0 0.0
2018-Feb-22 15:58N 58°06' E 006°48'0 0.0
2018-Feb-22 15:28N 58°06' E 006°48'0 0.0
2018-Feb-22 14:58N 58°06' E 006°48'0 0.0
2018-Feb-22 14:25N 58°06' E 006°48'0 0.0
2018-Feb-22 13:58N 58°06' E 006°48'0 0.0
2018-Feb-22 13:19N 58°06' E 006°48'0 0.0
2018-Feb-22 12:58N 58°06' E 006°48'0 0.0
2018-Feb-22 12:28N 58°06' E 006°48'0 0.0
2018-Feb-22 11:58N 58°06' E 006°48'0 0.0
2018-Feb-22 11:28N 58°06' E 006°48'0 0.0
2018-Feb-22 10:58N 58°06' E 006°48'0 0.0
2018-Feb-22 10:28N 58°06' E 006°48'0 0.0
2018-Feb-22 09:58N 58°06' E 006°48'0 0.0
2018-Feb-22 09:28N 58°06' E 006°48'0 0.0
2018-Feb-22 08:58N 58°06' E 006°48'0 0.0
2018-Feb-22 08:28N 58°06' E 006°48'0 0.0
2018-Feb-22 07:58N 58°06' E 006°48'0 0.0
2018-Feb-22 07:28N 58°06' E 006°48'0 0.0
2018-Feb-22 06:58N 58°06' E 006°48'0 0.0
2018-Feb-22 06:28N 58°06' E 006°48'0 0.0
2018-Feb-22 05:58N 58°06' E 006°48'0 0.0
2018-Feb-22 05:28N 58°06' E 006°48'0 0.0
2018-Feb-22 04:58N 58°06' E 006°48'0 0.0
2018-Feb-22 04:28N 58°06' E 006°48'0 0.0
2018-Feb-22 03:58N 58°06' E 006°48'0 0.0
2018-Feb-22 03:28N 58°06' E 006°48'0 0.0
2018-Feb-22 03:01N 58°06' E 006°48'0 0.0
2018-Feb-22 02:28N 58°06' E 006°48'0 0.0
2018-Feb-22 01:58N 58°06' E 006°48'0 0.0
2018-Feb-22 01:28N 58°06' E 006°48'0 0.0
2018-Feb-22 00:58N 58°06' E 006°48'0 0.0
2018-Feb-22 00:28N 58°06' E 006°48'0 0.0
2018-Feb-21 23:58N 58°06' E 006°48'0 0.0
2018-Feb-21 23:27N 58°06' E 006°48'0 0.0
2018-Feb-21 22:58N 58°06' E 006°48'0 0.0
2018-Feb-21 22:28N 58°06' E 006°48'0 0.0
2018-Feb-21 22:00N 58°06' E 006°48'0 0.0
2018-Feb-21 21:31N 58°06' E 006°48'0 0.0
2018-Feb-21 20:58N 58°06' E 006°48'0 0.0
2018-Feb-21 20:28N 58°06' E 006°48'0 0.0
2018-Feb-21 19:58N 58°06' E 006°48'0 0.0
2018-Feb-21 19:28N 58°06' E 006°48'0 0.0
2018-Feb-21 18:58N 58°06' E 006°48'0 0.0
2018-Feb-21 18:30N 58°06' E 006°48'0 0.0
2018-Feb-21 17:57N 58°06' E 006°48'0 0.0
2018-Feb-21 17:27N 58°06' E 006°48'0 0.0
2018-Feb-21 16:58N 58°06' E 006°48'0 0.0
2018-Feb-21 16:31N 58°06' E 006°48'0 0.0
2018-Feb-21 16:01N 58°06' E 006°48'0 0.0
2018-Feb-21 15:31N 58°06' E 006°48'0 0.0
2018-Feb-21 15:00N 58°06' E 006°48'0 0.0
2018-Feb-21 14:31N 58°06' E 006°48'0 0.0
2018-Feb-21 13:57N 58°06' E 006°48'0 0.0
2018-Feb-21 13:30N 58°06' E 006°48'4 7.1
2018-Feb-21 13:00N 58°04' E 006°55'1 2.1
2018-Feb-21 12:30N 58°05' E 006°56'2 3.3
2018-Feb-21 12:00N 58°03' E 006°55'3 5.5
2018-Feb-21 11:30N 58°05' E 006°50'1 2.5
2018-Feb-21 10:59N 58°06' E 006°48'0 0.0
2018-Feb-21 10:26N 58°06' E 006°48'0 0.0
2018-Feb-21 09:59N 58°06' E 006°48'0 0.0
2018-Feb-21 09:29N 58°06' E 006°48'0 0.0
2018-Feb-21 08:59N 58°06' E 006°48'0 0.0
2018-Feb-21 08:29N 58°06' E 006°48'0 0.0
2018-Feb-21 07:56N 58°06' E 006°48'0 0.0
2018-Feb-21 07:26N 58°06' E 006°48'0 0.0
2018-Feb-21 06:59N 58°06' E 006°48'0 0.0
2018-Feb-21 06:29N 58°06' E 006°48'0 0.0
2018-Feb-21 05:59N 58°06' E 006°48'0 0.0
2018-Feb-21 05:29N 58°06' E 006°48'0 0.0
2018-Feb-21 04:59N 58°06' E 006°48'0 0.0
2018-Feb-21 04:29N 58°06' E 006°48'0 0.0
2018-Feb-21 03:59N 58°06' E 006°48'0 0.0
2018-Feb-21 03:26N 58°06' E 006°48'0 0.0
2018-Feb-21 02:59N 58°06' E 006°48'0 0.0
2018-Feb-21 02:29N 58°06' E 006°48'0 0.0
2018-Feb-21 01:59N 58°06' E 006°48'0 0.0
2018-Feb-21 01:29N 58°06' E 006°48'0 0.0
2018-Feb-21 00:59N 58°06' E 006°48'0 0.0
2018-Feb-21 00:29N 58°06' E 006°48'0 0.0
2018-Feb-20 23:59N 58°06' E 006°48'0 0.0
2018-Feb-20 23:29N 58°06' E 006°48'0 0.0
2018-Feb-20 22:59N 58°06' E 006°48'0 0.0
2018-Feb-20 22:29N 58°06' E 006°48'0 0.0
2018-Feb-20 21:59N 58°06' E 006°48'0 0.0
2018-Feb-20 21:29N 58°06' E 006°48'0 0.0
2018-Feb-20 20:59N 58°06' E 006°48'0 0.0
2018-Feb-20 20:29N 58°06' E 006°48'0 0.0
2018-Feb-20 19:59N 58°06' E 006°48'0 0.0
2018-Feb-20 19:23N 58°06' E 006°48'0 0.0
2018-Feb-20 18:59N 58°06' E 006°48'0 0.0
2018-Feb-20 18:29N 58°06' E 006°48'0 0.0
2018-Feb-20 18:00N 58°06' E 006°48'0 0.0
2018-Feb-20 17:29N 58°06' E 006°48'0 0.0
2018-Feb-20 16:59N 58°06' E 006°48'0 0.0
2018-Feb-20 16:29N 58°06' E 006°48'0 0.0
2018-Feb-20 15:59N 58°06' E 006°48'0 0.0
2018-Feb-20 15:29N 58°06' E 006°48'0 0.0
2018-Feb-20 14:59N 58°06' E 006°48'0 0.0
2018-Feb-20 14:29N 58°06' E 006°48'0 0.0
2018-Feb-20 13:59N 58°06' E 006°48'0 0.0
2018-Feb-20 13:29N 58°06' E 006°48'0 0.0
2018-Feb-20 12:59N 58°06' E 006°48'0 0.0
2018-Feb-20 12:29N 58°06' E 006°48'0 0.0
2018-Feb-20 11:59N 58°06' E 006°48'0 0.0
2018-Feb-20 11:29N 58°06' E 006°48'0 0.0
2018-Feb-20 10:59N 58°06' E 006°48'0 0.0
2018-Feb-20 10:29N 58°06' E 006°48'0 0.0
2018-Feb-20 09:59N 58°06' E 006°48'0 0.0
2018-Feb-20 09:29N 58°06' E 006°48'0 0.0
2018-Feb-20 08:56N 58°06' E 006°48'0 0.0
2018-Feb-20 08:29N 58°06' E 006°48'0 0.0
2018-Feb-20 07:59N 58°06' E 006°48'0 0.0
2018-Feb-20 07:29N 58°06' E 006°48'0 0.0
2018-Feb-20 06:59N 58°06' E 006°48'0 0.0
2018-Feb-20 06:29N 58°06' E 006°48'0 0.0
2018-Feb-20 05:59N 58°06' E 006°48'0 0.0
2018-Feb-20 05:29N 58°06' E 006°48'0 0.0
2018-Feb-20 04:59N 58°06' E 006°48'0 0.0
2018-Feb-20 04:29N 58°06' E 006°48'0 0.0
2018-Feb-20 03:59N 58°06' E 006°48'0 0.0
2018-Feb-20 03:29N 58°06' E 006°48'0 0.0
2018-Feb-20 02:59N 58°06' E 006°48'0 0.0
2018-Feb-20 02:29N 58°06' E 006°48'0 0.0
2018-Feb-20 01:59N 58°06' E 006°48'0 0.0
2018-Feb-20 01:29N 58°06' E 006°48'0 0.0
2018-Feb-20 00:59N 58°06' E 006°48'0 0.0
2018-Feb-20 00:29N 58°06' E 006°48'0 0.0
2018-Feb-19 23:59N 58°06' E 006°48'0 0.0
2018-Feb-19 23:29N 58°06' E 006°48'0 0.0
2018-Feb-19 22:59N 58°06' E 006°48'0 0.0
2018-Feb-19 22:29N 58°06' E 006°48'0 0.0
2018-Feb-19 21:56N 58°06' E 006°48'0 0.0
2018-Feb-19 21:29N 58°06' E 006°48'0 0.0
2018-Feb-19 20:59N 58°06' E 006°48'0 0.0
2018-Feb-19 20:29N 58°06' E 006°48'0 0.0
2018-Feb-19 19:59N 58°06' E 006°48'0 0.0
2018-Feb-19 19:29N 58°06' E 006°48'0 0.0
2018-Feb-19 18:59N 58°06' E 006°48'0 0.0
2018-Feb-19 18:29N 58°06' E 006°48'0 0.0
2018-Feb-19 17:59N 58°06' E 006°48'0 0.0
2018-Feb-19 17:29N 58°06' E 006°48'0 0.0
2018-Feb-19 16:59N 58°06' E 006°48'0 0.0
2018-Feb-19 16:29N 58°06' E 006°48'0 0.0
2018-Feb-19 15:59N 58°06' E 006°48'0 0.0
2018-Feb-19 15:29N 58°06' E 006°48'0 0.0
2018-Feb-19 14:59N 58°06' E 006°48'0 0.0
2018-Feb-19 14:29N 58°06' E 006°48'0 0.0
2018-Feb-19 13:59N 58°06' E 006°48'0 0.0
2018-Feb-19 13:29N 58°06' E 006°48'0 0.0
2018-Feb-19 12:59N 58°06' E 006°48'0 0.0
2018-Feb-19 12:29N 58°06' E 006°48'0 0.0
2018-Feb-19 11:59N 58°06' E 006°48'0 0.0
2018-Feb-19 11:29N 58°06' E 006°48'0 0.0
2018-Feb-19 10:59N 58°06' E 006°48'0 0.0
2018-Feb-19 10:29N 58°06' E 006°48'0 0.0
2018-Feb-19 09:59N 58°06' E 006°48'0 0.0
2018-Feb-19 09:29N 58°06' E 006°48'0 0.0
2018-Feb-19 08:59N 58°06' E 006°48'0 0.0
2018-Feb-19 08:29N 58°06' E 006°48'0 0.0
2018-Feb-19 07:59N 58°06' E 006°48'0 0.0
2018-Feb-19 07:29N 58°06' E 006°48'0 0.0
2018-Feb-19 06:56N 58°06' E 006°48'0 0.0
2018-Feb-19 06:29N 58°06' E 006°48'0 0.0
2018-Feb-19 05:59N 58°06' E 006°48'0 0.0
2018-Feb-19 05:29N 58°06' E 006°48'0 0.0
2018-Feb-19 04:59N 58°06' E 006°48'0 0.0
2018-Feb-19 04:29N 58°06' E 006°48'0 0.0
2018-Feb-19 03:59N 58°06' E 006°48'0 0.0
2018-Feb-19 03:29N 58°06' E 006°48'0 0.0
2018-Feb-19 02:59N 58°06' E 006°48'0 0.0
2018-Feb-19 02:29N 58°06' E 006°48'0 0.0
2018-Feb-19 01:59N 58°06' E 006°48'0 0.0
2018-Feb-19 01:29N 58°06' E 006°48'0 0.0
2018-Feb-19 00:59N 58°06' E 006°48'0 0.0
2018-Feb-19 00:29N 58°06' E 006°48'0 0.0
2018-Feb-18 23:59N 58°06' E 006°48'0 0.0
2018-Feb-18 23:29N 58°06' E 006°48'0 0.0
2018-Feb-18 22:59N 58°06' E 006°48'0 0.0
2018-Feb-18 22:29N 58°06' E 006°48'0 0.0
2018-Feb-18 21:59N 58°06' E 006°48'0 0.0
2018-Feb-18 21:29N 58°06' E 006°48'0 0.0
2018-Feb-18 20:59N 58°06' E 006°48'0 0.0
2018-Feb-18 20:29N 58°06' E 006°48'0 0.0
2018-Feb-18 19:56N 58°06' E 006°48'0 0.0
2018-Feb-18 19:29N 58°06' E 006°48'0 0.0
2018-Feb-18 18:59N 58°06' E 006°48'0 0.0
2018-Feb-18 18:29N 58°06' E 006°48'0 0.0
2018-Feb-18 17:56N 58°06' E 006°48'0 0.0
2018-Feb-18 17:29N 58°06' E 006°48'0 0.0
2018-Feb-18 16:59N 58°06' E 006°48'0 0.0
2018-Feb-18 16:29N 58°06' E 006°48'0 0.0
2018-Feb-18 15:59N 58°06' E 006°48'0 0.0
2018-Feb-18 15:29N 58°06' E 006°48'0 0.0
2018-Feb-18 14:59N 58°06' E 006°48'0 0.0
2018-Feb-18 14:29N 58°06' E 006°48'0 0.0
2018-Feb-18 13:59N 58°06' E 006°48'1 2.2
2018-Feb-18 13:30N 58°05' E 006°50'712.9
2018-Feb-18 13:00N 58°04' E 006°37'815.8
2018-Feb-18 12:31N 58°11' E 006°38'4 7.1
2018-Feb-18 12:00N 58°15' E 006°34'2 4.4
2018-Feb-18 11:30N 58°14' E 006°30'3 5.4
2018-Feb-18 10:59N 58°12' E 006°35'713.8
2018-Feb-18 10:30N 58°06' E 006°35'3 6.4
2018-Feb-18 10:00N 58°03' E 006°39'611.4
2018-Feb-18 09:30N 58°05' E 006°50'1 1.8
2018-Feb-18 08:58N 58°06' E 006°48'0 0.0
2018-Feb-18 08:28N 58°06' E 006°48'0 0.0
2018-Feb-18 07:58N 58°06' E 006°48'0 0.0
2018-Feb-18 07:28N 58°06' E 006°48'0 0.0
2018-Feb-18 06:58N 58°06' E 006°48'0 0.0
2018-Feb-18 06:28N 58°06' E 006°48'0 0.0
2018-Feb-18 05:55N 58°06' E 006°48'0 0.0
2018-Feb-18 05:28N 58°06' E 006°48'0 0.0
2018-Feb-18 04:58N 58°06' E 006°48'0 0.0
2018-Feb-18 04:28N 58°06' E 006°48'0 0.0
2018-Feb-18 03:58N 58°06' E 006°48'0 0.0
2018-Feb-18 03:28N 58°06' E 006°48'0 0.0
2018-Feb-18 02:58N 58°06' E 006°48'0 0.0
2018-Feb-18 02:28N 58°06' E 006°48'0 0.0
2018-Feb-18 01:58N 58°06' E 006°48'0 0.0
2018-Feb-18 01:28N 58°06' E 006°48'0 0.0
2018-Feb-18 00:58N 58°06' E 006°48'0 0.0
2018-Feb-18 00:28N 58°06' E 006°48'0 0.0
2018-Feb-17 23:58N 58°06' E 006°48'0 0.0
2018-Feb-17 23:28N 58°06' E 006°48'0 0.0
2018-Feb-17 23:01N 58°06' E 006°48'0 0.0
2018-Feb-17 22:28N 58°06' E 006°48'0 0.0
2018-Feb-17 21:58N 58°06' E 006°48'0 0.0
2018-Feb-17 21:28N 58°06' E 006°48'0 0.0
2018-Feb-17 20:58N 58°06' E 006°48'0 0.0
2018-Feb-17 20:25N 58°06' E 006°48'0 0.0
2018-Feb-17 19:58N 58°06' E 006°48'0 0.0
2018-Feb-17 19:28N 58°06' E 006°48'0 0.0
2018-Feb-17 18:58N 58°06' E 006°48'0 0.0
2018-Feb-17 18:28N 58°06' E 006°48'0 0.0
2018-Feb-17 17:58N 58°06' E 006°48'0 0.0
2018-Feb-17 17:28N 58°06' E 006°48'0 0.0
2018-Feb-17 16:58N 58°06' E 006°48'0 0.0
2018-Feb-17 16:28N 58°06' E 006°48'0 0.0
2018-Feb-17 15:58N 58°06' E 006°48'0 0.0
2018-Feb-17 15:28N 58°06' E 006°48'0 0.0
2018-Feb-17 14:58N 58°06' E 006°48'0 0.0
2018-Feb-17 14:30N 58°06' E 006°48'0 0.0
2018-Feb-17 14:01N 58°06' E 006°48'0 0.0
2018-Feb-17 13:28N 58°06' E 006°48'0 0.0
2018-Feb-17 12:58N 58°06' E 006°48'0 0.0
2018-Feb-17 12:28N 58°06' E 006°48'0 0.0
2018-Feb-17 11:58N 58°06' E 006°48'0 0.0
2018-Feb-17 11:28N 58°06' E 006°48'0 0.0
2018-Feb-17 11:01N 58°06' E 006°48'0 0.0
2018-Feb-17 10:28N 58°06' E 006°48'0 0.0
2018-Feb-17 10:01N 58°06' E 006°48'0 0.0
2018-Feb-17 09:28N 58°06' E 006°48'0 0.0
2018-Feb-17 08:58N 58°06' E 006°48'0 0.0
2018-Feb-17 08:28N 58°06' E 006°48'0 0.0
2018-Feb-17 07:58N 58°06' E 006°48'0 0.0
2018-Feb-17 07:28N 58°06' E 006°48'0 0.0
2018-Feb-17 06:58N 58°06' E 006°48'0 0.0
2018-Feb-17 06:28N 58°06' E 006°48'0 0.0
2018-Feb-17 05:58N 58°06' E 006°48'0 0.0
2018-Feb-17 05:31N 58°06' E 006°48'0 0.0
2018-Feb-17 04:58N 58°06' E 006°48'0 0.0
2018-Feb-17 04:30N 58°06' E 006°48'0 0.0
2018-Feb-17 04:01N 58°06' E 006°48'0 0.0
2018-Feb-17 03:28N 58°06' E 006°48'0 0.0
2018-Feb-17 03:00N 58°06' E 006°48'0 0.0
2018-Feb-17 02:31N 58°06' E 006°48'0 0.0
2018-Feb-17 01:58N 58°06' E 006°48'0 0.0
2018-Feb-17 01:28N 58°06' E 006°48'0 0.0
2018-Feb-17 00:58N 58°06' E 006°48'0 0.0
2018-Feb-17 00:28N 58°06' E 006°48'0 0.0
2018-Feb-17 00:00N 58°06' E 006°48'0 0.0
2018-Feb-16 23:31N 58°06' E 006°48'0 0.0
2018-Feb-16 23:00N 58°06' E 006°48'0 0.0
2018-Feb-16 22:28N 58°06' E 006°48'0 0.0
2018-Feb-16 22:00N 58°06' E 006°48'0 0.0
2018-Feb-16 21:27N 58°06' E 006°48'0 0.0
2018-Feb-16 21:00N 58°06' E 006°48'0 0.0
2018-Feb-16 20:30N 58°06' E 006°48'0 0.0
2018-Feb-16 19:58N 58°06' E 006°48'0 0.0
2018-Feb-16 19:30N 58°06' E 006°48'0 0.0
2018-Feb-16 19:00N 58°06' E 006°48'0 0.0
2018-Feb-16 18:30N 58°06' E 006°48'0 0.0
2018-Feb-16 18:00N 58°06' E 006°48'0 0.0
2018-Feb-16 17:30N 58°06' E 006°48'0 0.0
2018-Feb-16 17:00N 58°06' E 006°48'0 0.0
2018-Feb-16 16:31N 58°06' E 006°48'0 0.0
2018-Feb-16 16:00N 58°06' E 006°48'0 0.0
2018-Feb-16 15:30N 58°06' E 006°48'0 0.0
2018-Feb-16 15:00N 58°06' E 006°48'0 0.0
2018-Feb-16 14:28N 58°06' E 006°48'0 0.0
2018-Feb-16 14:00N 58°06' E 006°48'0 0.0
2018-Feb-16 13:30N 58°06' E 006°48'0 0.0
2018-Feb-16 13:00N 58°06' E 006°48'0 0.0
2018-Feb-16 12:30N 58°06' E 006°48'0 0.0
2018-Feb-16 12:00N 58°06' E 006°48'0 0.0
2018-Feb-16 11:30N 58°06' E 006°48'0 0.0
2018-Feb-16 11:00N 58°06' E 006°48'0 0.0
2018-Feb-16 10:30N 58°06' E 006°48'0 0.0
2018-Feb-16 10:00N 58°06' E 006°48'0 0.0
2018-Feb-16 09:30N 58°06' E 006°48'0 0.0
2018-Feb-16 09:00N 58°06' E 006°48'0 0.0
2018-Feb-16 08:30N 58°06' E 006°48'0 0.0
2018-Feb-16 08:00N 58°06' E 006°48'0 0.0
2018-Feb-16 07:30N 58°06' E 006°48'0 0.0
2018-Feb-16 06:58N 58°06' E 006°48'0 0.0
2018-Feb-16 06:30N 58°06' E 006°48'0 0.0
2018-Feb-16 06:00N 58°06' E 006°48'0 0.0
2018-Feb-16 05:30N 58°06' E 006°48'0 0.0
2018-Feb-16 04:54N 58°06' E 006°48'0 0.0
2018-Feb-16 04:30N 58°06' E 006°48'0 0.0
2018-Feb-16 04:00N 58°06' E 006°48'0 0.0
2018-Feb-16 03:30N 58°06' E 006°48'0 0.0
2018-Feb-16 03:00N 58°06' E 006°48'0 0.0
2018-Feb-16 02:30N 58°06' E 006°48'0 0.0
2018-Feb-16 02:00N 58°06' E 006°48'0 0.0
2018-Feb-16 01:30N 58°06' E 006°48'0 0.0
2018-Feb-16 01:00N 58°06' E 006°48'0 0.0
2018-Feb-16 00:30N 58°06' E 006°48'0 0.0
2018-Feb-16 00:00N 58°06' E 006°48'0 0.0
2018-Feb-15 23:30N 58°06' E 006°48'  

Dump ship's entire track history